Winthrop, IA (50682)

10:39 AM CDT on July 25, 2017 (GMT -0500)
Terrace Drive SE | | Change Station
Active Advisory: Flood Warning

Elev 940 ft 42.47 °N, 91.88 °W | Updated 4 seconds ago

Clear
Clear
73.0 °F
Feels Like 73 °F
N
1.0
Wind Variable Wind from SSE
Gusts 6.0 mph

Today
High -- | Low -- °F
--% Chance of Precip.
Yesterday
High -- | Low -- °F
Precip. -- in
Pressure 30.12 in
Visibility 10.0 miles
Clouds Clear
Heat Index 73 °F
Dew Point 67 °F
Humidity 81%
Rainfall 0.00 in
Snow Depth Not available.
5:52 AM 8:33 PM
Waxing Crescent, 7% visible
METAR KVTI 251535Z AUTO 16010KT 10SM CLR 25/19 A3012 RMK AO2 T02540190
Pressure 30.12 in
Visibility 10.0 miles
Clouds Clear
Heat Index 73 °F
Dew Point 67 °F
Humidity 81%
Rainfall 0.00 in
Snow Depth Not available.
5:52 AM 8:33 PM
Waxing Crescent, 7% visible
METAR KVTI 251535Z AUTO 16010KT 10SM CLR 25/19 A3012 RMK AO2 T02540190

Get Your Daily Forecast Email!

Thanks for signing up!

Be on the lookout for a verification email in your inbox.

You'll start receiving severe weather alerts in your inbox..

×

10-Day Weather Forecast

Almanac

Astronomy

Jul. 25, 2017 Rise Set
Actual Time
Civil Twilight
Nautical Twilight
Astronomical Twilight
Moon
Length of Visible Light
Length of Day
Tomorrow will be .
, % of the Moon is Illuminated

Today's Extremes

State Highs State Lows

Community

WunderPhotos

Category 6

Welcome to Category 6. This is the collective home for Weather Underground's featured writeups by Dr. Jeff Masters (right), Bob Henson (left), Chris Burt, and other regular contributors.

Nearby

Air Quality

  Air Quality AQ Index Pollutant
Not available.

Snow Depth

Station Depth Elevation

Earthquake Activity

City Distance Mag. Time & Date
Minimum magnitude displayed is 2.5.

Coastal Water Temperatures

Place Temperature

Stations

Nearby Weather Stations

Station Location Temp. Windchill Dew Point Humidity Wind Precip. Elev Updated Type
                   

Watches & Warnings

Flood Warning
Issued: 9:40 AM CDT Jul. 25, 2017 – National Weather Service

... Flood Warning now in effect until Wednesday evening...

The Flood Warning continues for
the wapsipinicon river at Independence.
* Until Wednesday evening.
* At 9:30 am Tuesday the stage was 14.7 feet and steady.
* Flood stage is 12.0 feet.
* Moderate flooding is occurring.
* Forecast... fall below flood stage Wednesday evening.
* Impact... at 14.0 feet, water affects residences and streets in
low-lying areas of Independence and Littleton.


Lat... Lon 4219 9160 4252 9208 4261 9208 4226 9152